Time;durP1;ratioP1;P1;durP2;ratioP2;P2;SDS_P1;SDS_P2;PMS_P1;PMS_P2;Temp;Humidity;BMP_temperature;BMP_pressure;BME280_temperature;BME280_humidity;BME280_pressure;Samples;Min_cycle;Max_cycle;Signal;HPM_P1;HPM_P2
2022/03/09 00:00:09;;;;;;;0.00;0.00;;;3.10;99.90;;;;;;5007682;28;20080;-63
2022/03/09 00:02:35;;;;;;;0.00;0.00;;;3.90;99.90;;;;;;5013849;28;20075;-62
2022/03/09 00:05:01;;;;;;;0.00;0.00;;;3.00;99.90;;;;;;5021832;28;20088;-64
2022/03/09 00:07:27;;;;;;;0.00;0.00;;;3.00;99.90;;;;;;5023508;28;20048;-63
2022/03/09 00:09:54;;;;;;;0.00;0.00;;;3.00;99.90;;;;;;5024896;28;20049;-62
2022/03/09 00:12:20;;;;;;;0.00;0.00;;;3.00;99.90;;;;;;5024674;28;20103;-63
2022/03/09 00:14:45;;;;;;;0.10;0.10;;;2.90;99.90;;;;;;5023363;28;20425;-63
2022/03/09 00:17:11;;;;;;;0.00;0.00;;;2.80;99.90;;;;;;5007146;28;20057;-63
2022/03/09 00:19:37;;;;;;;0.00;0.00;;;3.30;99.90;;;;;;5023283;28;20131;-63
2022/03/09 00:22:03;;;;;;;0.00;0.00;;;2.70;99.90;;;;;;5022723;28;20512;-63
2022/03/09 00:24:29;;;;;;;0.00;0.00;;;2.70;99.90;;;;;;5023376;28;20048;-63
2022/03/09 00:26:54;;;;;;;0.00;0.00;;;2.60;99.90;;;;;;5022876;28;20050;-63
2022/03/09 00:29:20;;;;;;;0.38;0.25;;;2.70;99.90;;;;;;5023313;28;20519;-61
2022/03/09 00:31:46;;;;;;;0.00;0.00;;;2.60;99.90;;;;;;5023167;28;20057;-62
2022/03/09 00:34:11;;;;;;;0.00;0.00;;;2.60;99.90;;;;;;5024633;28;20037;-61
2022/03/09 00:36:37;;;;;;;0.00;0.00;;;2.60;99.90;;;;;;5023827;28;20041;-61
2022/03/09 00:39:03;;;;;;;0.00;0.00;;;2.60;99.90;;;;;;5024363;28;20049;-61
2022/03/09 00:41:29;;;;;;;0.10;0.10;;;2.60;99.90;;;;;;5024226;28;20041;-64
2022/03/09 00:43:54;;;;;;;0.00;0.00;;;2.60;99.90;;;;;;5024008;28;20041;-61
2022/03/09 00:46:20;;;;;;;0.00;0.00;;;2.50;99.90;;;;;;5022966;28;20048;-63
2022/03/09 00:48:46;;;;;;;0.00;0.00;;;2.50;99.90;;;;;;5021517;28;20045;-62
2022/03/09 00:51:11;;;;;;;0.00;0.00;;;2.50;99.90;;;;;;5023602;28;20274;-62
2022/03/09 00:53:38;;;;;;;0.00;0.00;;;2.40;99.90;;;;;;5023931;28;20116;-62
2022/03/09 00:56:04;;;;;;;0.00;0.00;;;2.40;99.90;;;;;;5022848;28;20033;-62
2022/03/09 00:58:30;;;;;;;0.00;0.00;;;2.30;99.90;;;;;;5024571;28;20602;-62
2022/03/09 01:00:55;;;;;;;0.00;0.00;;;3.10;99.90;;;;;;5022940;28;20042;-63
2022/03/09 01:03:21;;;;;;;0.20;0.20;;;2.20;99.90;;;;;;5023739;28;20056;-62
2022/03/09 01:05:47;;;;;;;0.00;0.00;;;2.20;99.90;;;;;;5022770;28;20045;-62
2022/03/09 01:08:12;;;;;;;0.00;0.00;;;2.20;99.90;;;;;;5023813;28;20333;-62
2022/03/09 01:10:38;;;;;;;0.00;0.00;;;2.10;99.90;;;;;;5023328;28;20099;-60
2022/03/09 01:13:04;;;;;;;0.00;0.00;;;2.10;99.90;;;;;;5023996;28;20439;-63
2022/03/09 01:15:30;;;;;;;0.00;0.00;;;1.40;99.90;;;;;;5022815;28;20125;-63
2022/03/09 01:17:55;;;;;;;0.00;0.00;;;2.70;99.90;;;;;;5023453;28;20480;-64
2022/03/09 01:20:21;;;;;;;0.00;0.00;;;2.00;99.90;;;;;;5022764;28;20744;-62
2022/03/09 01:22:47;;;;;;;0.00;0.00;;;2.00;99.90;;;;;;5023096;28;20038;-63
2022/03/09 01:25:12;;;;;;;0.00;0.00;;;2.30;99.90;;;;;;5022142;28;20544;-62
2022/03/09 01:27:38;;;;;;;0.00;0.00;;;1.90;99.90;;;;;;5023541;28;20045;-59
2022/03/09 01:30:05;;;;;;;0.00;0.00;;;2.30;99.90;;;;;;5022174;28;20082;-62
2022/03/09 01:32:31;;;;;;;0.00;0.00;;;1.80;99.90;;;;;;5023854;28;20124;-62
2022/03/09 01:34:56;;;;;;;0.00;0.00;;;1.80;99.90;;;;;;5004712;28;20144;-63
2022/03/09 01:37:22;;;;;;;0.00;0.00;;;1.70;99.90;;;;;;5023340;28;20524;-62
2022/03/09 01:39:48;;;;;;;0.00;0.00;;;1.70;99.90;;;;;;5022800;28;20052;-63
2022/03/09 01:42:14;;;;;;;0.00;0.00;;;1.70;99.90;;;;;;5022069;28;20045;-63
2022/03/09 01:44:39;;;;;;;0.00;0.00;;;1.70;99.90;;;;;;5023083;28;20045;-62
2022/03/09 01:47:05;;;;;;;0.00;0.00;;;1.60;99.90;;;;;;5021725;28;20699;-63
2022/03/09 01:49:31;;;;;;;0.00;0.00;;;1.90;99.90;;;;;;5023692;28;20688;-62
2022/03/09 01:52:00;;;;;;;0.00;0.00;;;1.70;99.90;;;;;;5020759;28;20426;-62
2022/03/09 01:54:26;;;;;;;0.00;0.00;;;1.80;99.90;;;;;;5021572;28;20061;-62
2022/03/09 01:56:52;;;;;;;0.00;0.00;;;1.60;99.90;;;;;;5022685;28;20069;-63
2022/03/09 01:59:18;;;;;;;0.00;0.00;;;1.70;99.90;;;;;;5022756;28;20103;-62
2022/03/09 02:01:45;;;;;;;2.03;1.92;;;1.60;99.90;;;;;;5010397;28;20632;-62
2022/03/09 02:04:11;;;;;;;0.00;0.00;;;1.60;99.90;;;;;;5011304;28;20121;-62
2022/03/09 02:06:38;;;;;;;0.00;0.00;;;1.60;99.90;;;;;;5002141;28;20413;-62
2022/03/09 02:11:50;;;;;;;0.00;0.00;;;1.60;99.90;;;;;;5002447;28;20049;-63
2022/03/09 02:14:36;;;;;;;0.00;0.00;;;1.60;99.90;;;;;;4985696;28;20050;-62
2022/03/09 02:17:08;;;;;;;0.00;0.00;;;1.50;99.90;;;;;;4985233;28;20077;-62
2022/03/09 02:19:34;;;;;;;0.00;0.00;;;1.50;99.90;;;;;;4984776;28;20049;-62
2022/03/09 02:22:34;;;;;;;0.00;0.00;;;1.80;99.90;;;;;;5003146;28;20046;-62
2022/03/09 02:25:02;;;;;;;0.43;0.43;;;1.50;99.90;;;;;;5002818;28;20274;-62
2022/03/09 02:27:27;;;;;;;0.80;0.80;;;1.50;99.90;;;;;;4984782;28;20137;-62
2022/03/09 02:29:54;;;;;;;0.00;0.00;;;1.40;99.90;;;;;;4984794;28;20117;-62
2022/03/09 02:32:20;;;;;;;0.00;0.00;;;2.40;99.90;;;;;;5003073;28;20104;-62
2022/03/09 02:34:47;;;;;;;0.00;0.00;;;1.40;99.90;;;;;;5001592;28;20483;-62
2022/03/09 02:37:12;;;;;;;0.00;0.00;;;1.40;99.90;;;;;;5002575;28;20132;-62
2022/03/09 02:39:38;;;;;;;0.00;0.00;;;1.40;99.90;;;;;;5002349;28;20471;-60
2022/03/09 02:42:05;;;;;;;0.00;0.00;;;1.30;99.90;;;;;;5002978;28;20054;-62
2022/03/09 02:44:31;;;;;;;0.00;0.00;;;1.30;99.90;;;;;;5002499;28;20052;-62
2022/03/09 02:46:57;;;;;;;0.00;0.00;;;1.30;99.90;;;;;;5000905;28;20467;-62
2022/03/09 02:49:23;;;;;;;0.00;0.00;;;1.60;99.90;;;;;;5002608;28;20042;-62
2022/03/09 02:51:49;;;;;;;0.00;0.00;;;1.30;99.90;;;;;;5001626;28;20056;-62
2022/03/09 02:54:15;;;;;;;0.00;0.00;;;1.30;99.90;;;;;;5002094;28;20048;-62
2022/03/09 02:56:40;;;;;;;0.20;0.17;;;1.30;99.90;;;;;;5002037;28;20042;-62
2022/03/09 02:59:06;;;;;;;0.20;0.20;;;1.30;99.90;;;;;;5001022;28;20050;-62
2022/03/09 03:01:32;;;;;;;0.00;0.00;;;1.30;99.90;;;;;;5004881;28;20144;-62
2022/03/09 03:03:58;;;;;;;0.10;0.10;;;1.30;99.90;;;;;;5009461;28;20112;-62
2022/03/09 03:06:23;;;;;;;0.00;0.00;;;1.20;99.90;;;;;;4984239;28;20094;-64
2022/03/09 03:08:50;;;;;;;0.00;0.00;;;1.20;99.90;;;;;;4965250;28;20053;-62
2022/03/09 03:11:16;;;;;;;0.00;0.00;;;1.70;99.90;;;;;;4982762;28;20480;-62
2022/03/09 03:13:42;;;;;;;0.00;0.00;;;1.20;99.90;;;;;;4986482;28;20038;-60
2022/03/09 03:16:09;;;;;;;0.00;0.00;;;1.20;99.90;;;;;;4986597;28;20042;-64
2022/03/09 03:18:35;;;;;;;0.00;0.00;;;1.20;99.90;;;;;;4986303;28;20424;-62
2022/03/09 03:21:01;;;;;;;0.00;0.00;;;1.70;99.90;;;;;;4986249;28;20038;-63
2022/03/09 03:23:29;;;;;;;0.00;0.00;;;1.10;99.90;;;;;;4986874;28;20042;-62
2022/03/09 03:25:55;;;;;;;0.00;0.00;;;1.50;99.90;;;;;;4984487;28;20573;-62
2022/03/09 03:28:23;;;;;;;0.00;0.00;;;1.10;99.90;;;;;;4986524;28;20044;-62
2022/03/09 03:30:50;;;;;;;0.00;0.00;;;1.10;99.90;;;;;;4986320;28;20046;-62
2022/03/09 03:33:16;;;;;;;0.00;0.00;;;1.10;99.90;;;;;;4985307;28;20046;-63
2022/03/09 03:35:43;;;;;;;0.00;0.00;;;1.20;99.90;;;;;;4984799;28;20042;-62
2022/03/09 03:38:10;;;;;;;0.00;0.00;;;1.00;99.90;;;;;;4985231;28;20034;-63
2022/03/09 03:40:36;;;;;;;0.00;0.00;;;1.00;99.90;;;;;;4985951;28;20046;-62
2022/03/09 03:43:02;;;;;;;0.00;0.00;;;1.10;99.90;;;;;;4984982;28;20061;-62
2022/03/09 03:45:28;;;;;;;0.00;0.00;;;1.00;99.90;;;;;;4985105;28;20046;-63
2022/03/09 03:47:53;;;;;;;0.00;0.00;;;0.90;99.90;;;;;;4985756;28;20134;-62
2022/03/09 03:50:19;;;;;;;0.00;0.00;;;1.00;99.90;;;;;;4985202;28;20038;-64
2022/03/09 03:52:45;;;;;;;0.00;0.00;;;1.10;99.90;;;;;;4986428;28;20374;-62
2022/03/09 03:55:11;;;;;;;0.00;0.00;;;1.10;99.90;;;;;;4985956;28;20049;-63
2022/03/09 03:57:37;;;;;;;0.05;0.05;;;1.10;99.90;;;;;;4985627;28;20042;-62
2022/03/09 04:00:04;;;;;;;0.00;0.00;;;1.10;99.90;;;;;;4985880;28;20544;-63
2022/03/09 04:02:30;;;;;;;0.00;0.00;;;1.10;99.90;;;;;;4990077;28;20053;-62
2022/03/09 04:04:56;;;;;;;0.00;0.00;;;1.10;99.90;;;;;;4984657;28;20043;-62
2022/03/09 04:07:21;;;;;;;0.00;0.00;;;0.70;99.90;;;;;;4989837;28;20050;-64
2022/03/09 04:09:47;;;;;;;0.00;0.00;;;1.00;99.90;;;;;;4987113;28;20138;-64
2022/03/09 04:12:12;;;;;;;0.00;0.00;;;1.00;99.90;;;;;;5005592;28;20096;-61
2022/03/09 04:14:38;;;;;;;0.00;0.00;;;1.00;99.90;;;;;;4987279;28;20049;-61
2022/03/09 04:17:04;;;;;;;0.00;0.00;;;1.80;99.90;;;;;;5005228;28;20503;-62
2022/03/09 04:19:30;;;;;;;0.00;0.00;;;1.90;99.90;;;;;;4987313;28;20373;-62
2022/03/09 04:21:55;;;;;;;0.00;0.00;;;0.90;99.90;;;;;;5004803;28;20045;-62
2022/03/09 04:24:21;;;;;;;0.00;0.00;;;0.80;99.90;;;;;;4987349;28;20697;-62
2022/03/09 04:26:47;;;;;;;0.00;0.00;;;0.90;99.90;;;;;;4986550;28;20054;-62
2022/03/09 04:29:13;;;;;;;0.00;0.00;;;0.80;99.90;;;;;;5005420;28;20038;-61
2022/03/09 04:31:39;;;;;;;0.00;0.00;;;1.40;99.90;;;;;;5004682;28;20914;-62
2022/03/09 04:34:05;;;;;;;0.00;0.00;;;0.70;99.90;;;;;;4986686;28;20096;-63
2022/03/09 04:36:31;;;;;;;0.00;0.00;;;0.70;99.90;;;;;;5004503;28;20073;-62
2022/03/09 04:38:56;;;;;;;0.00;0.00;;;0.60;99.90;;;;;;5004401;28;20120;-62
2022/03/09 04:41:22;;;;;;;0.00;0.00;;;0.60;99.90;;;;;;4986922;28;20045;-62
2022/03/09 04:43:48;;;;;;;0.00;0.00;;;0.70;99.90;;;;;;4986397;28;20073;-62
2022/03/09 04:46:14;;;;;;;0.00;0.00;;;0.40;99.90;;;;;;5004840;28;20041;-62
2022/03/09 04:48:40;;;;;;;0.00;0.00;;;0.50;99.90;;;;;;4986855;28;20053;-62
2022/03/09 04:51:06;;;;;;;0.00;0.00;;;0.40;99.90;;;;;;5003484;28;20058;-63
2022/03/09 04:53:32;;;;;;;0.00;0.00;;;0.40;99.90;;;;;;4987375;28;20037;-62
2022/03/09 04:55:58;;;;;;;1.27;1.13;;;0.40;99.90;;;;;;5004359;28;20129;-62
2022/03/09 04:58:24;;;;;;;0.00;0.00;;;0.40;99.90;;;;;;5004593;28;20587;-62
2022/03/09 05:00:51;;;;;;;0.00;0.00;;;0.40;99.90;;;;;;4986039;28;20046;-61
2022/03/09 05:03:16;;;;;;;0.00;0.00;;;0.40;99.90;;;;;;5015102;28;20042;-62
2022/03/09 05:05:42;;;;;;;0.00;0.00;;;0.30;99.90;;;;;;4985697;28;20046;-61
2022/03/09 05:08:09;;;;;;;0.03;0.03;;;0.50;99.90;;;;;;4982817;28;20058;-62
2022/03/09 05:10:36;;;;;;;0.00;0.00;;;0.20;99.90;;;;;;4984613;28;20639;-62
2022/03/09 05:13:02;;;;;;;0.00;0.00;;;0.30;99.90;;;;;;4983439;28;20051;-62
2022/03/09 05:15:28;;;;;;;0.00;0.00;;;0.20;99.90;;;;;;4984412;28;20053;-63
2022/03/09 05:17:53;;;;;;;0.00;0.00;;;0.30;99.90;;;;;;4982842;28;20054;-62
2022/03/09 05:20:20;;;;;;;0.00;0.00;;;0.30;99.90;;;;;;4982668;28;20057;-62
2022/03/09 05:22:47;;;;;;;0.00;0.00;;;0.30;99.90;;;;;;4983936;28;20042;-62
2022/03/09 05:25:13;;;;;;;0.00;0.00;;;0.30;99.90;;;;;;4982747;28;20057;-64
2022/03/09 05:27:39;;;;;;;0.00;0.00;;;0.20;99.90;;;;;;4982879;28;20083;-61
2022/03/09 05:30:07;;;;;;;0.00;0.00;;;0.20;99.90;;;;;;4984318;28;20050;-62
2022/03/09 05:32:32;;;;;;;0.00;0.00;;;0.20;99.90;;;;;;4982737;28;20528;-63
2022/03/09 05:34:58;;;;;;;0.00;0.00;;;0.30;99.90;;;;;;4981964;28;20046;-62
2022/03/09 05:37:24;;;;;;;0.00;0.00;;;0.20;99.90;;;;;;4984560;28;20042;-62
2022/03/09 05:39:50;;;;;;;0.00;0.00;;;0.20;99.90;;;;;;4983958;28;20042;-62
2022/03/09 05:42:15;;;;;;;0.00;0.00;;;0.20;99.90;;;;;;4983865;28;20714;-63
2022/03/09 05:44:41;;;;;;;0.00;0.00;;;0.10;99.90;;;;;;4983950;28;20038;-59
2022/03/09 05:47:07;;;;;;;0.00;0.00;;;0.30;99.90;;;;;;4984308;28;20525;-62
2022/03/09 05:49:33;;;;;;;0.00;0.00;;;0.10;99.90;;;;;;4981950;28;20050;-62
2022/03/09 05:51:59;;;;;;;0.00;0.00;;;1.90;99.90;;;;;;4983643;28;20057;-62
2022/03/09 05:54:25;;;;;;;0.00;0.00;;;0.00;99.90;;;;;;4984060;28;20121;-62
2022/03/09 05:56:51;;;;;;;0.00;0.00;;;-0.30;99.90;;;;;;4983400;28;20509;-62
2022/03/09 05:59:17;;;;;;;1.65;0.40;;;-0.10;99.90;;;;;;4982887;28;20100;-63
2022/03/09 06:01:43;;;;;;;0.00;0.00;;;0.00;99.90;;;;;;4985188;28;20398;-62
2022/03/09 06:04:09;;;;;;;0.00;0.00;;;0.00;99.90;;;;;;4991674;28;20053;-62
2022/03/09 06:06:35;;;;;;;0.00;0.00;;;0.10;99.90;;;;;;4983320;28;20420;-63
2022/03/09 06:09:00;;;;;;;0.00;0.00;;;0.10;99.90;;;;;;4982252;28;20085;-62
2022/03/09 06:11:27;;;;;;;0.00;0.00;;;0.10;99.90;;;;;;4982571;28;20125;-62
2022/03/09 06:13:52;;;;;;;0.00;0.00;;;0.10;99.90;;;;;;4983460;28;20046;-62
2022/03/09 06:16:18;;;;;;;0.00;0.00;;;0.10;99.90;;;;;;4983287;28;20576;-63
2022/03/09 06:18:46;;;;;;;0.00;0.00;;;0.80;99.90;;;;;;4981591;28;20057;-62
2022/03/09 06:21:15;;;;;;;0.00;0.00;;;0.20;99.90;;;;;;4982528;28;20058;-62
2022/03/09 06:23:41;;;;;;;0.00;0.00;;;0.20;99.90;;;;;;4982839;28;20078;-62
2022/03/09 06:26:08;;;;;;;0.00;0.00;;;0.30;99.90;;;;;;4983522;28;20063;-62
2022/03/09 06:28:33;;;;;;;0.00;0.00;;;1.20;99.90;;;;;;4984135;28;20508;-63
2022/03/09 06:30:59;;;;;;;0.00;0.00;;;0.80;99.90;;;;;;4982417;28;20054;-62
2022/03/09 06:33:25;;;;;;;0.00;0.00;;;0.30;99.90;;;;;;4983124;28;20536;-62
2022/03/09 06:35:51;;;;;;;0.00;0.00;;;0.30;99.90;;;;;;4982179;28;20651;-61
2022/03/09 06:38:17;;;;;;;0.00;0.00;;;0.30;99.90;;;;;;4983388;28;20042;-62
2022/03/09 06:40:43;;;;;;;0.00;0.00;;;0.00;99.90;;;;;;4981009;28;20094;-62
2022/03/09 06:43:09;;;;;;;0.00;0.00;;;1.60;99.90;;;;;;4983115;28;20134;-63
2022/03/09 06:45:35;;;;;;;0.00;0.00;;;0.40;99.90;;;;;;4983057;28;20131;-61
2022/03/09 06:48:02;;;;;;;0.00;0.00;;;0.40;99.90;;;;;;4982802;28;20046;-63
2022/03/09 06:50:27;;;;;;;0.00;0.00;;;0.40;99.90;;;;;;4982422;28;20042;-63
2022/03/09 06:52:53;;;;;;;0.00;0.00;;;0.20;99.90;;;;;;4982573;28;20046;-63
2022/03/09 06:55:19;;;;;;;0.10;0.10;;;0.40;99.90;;;;;;4983385;28;20050;-63
2022/03/09 06:57:44;;;;;;;0.00;0.00;;;0.40;99.90;;;;;;4980643;28;20046;-62
2022/03/09 07:00:14;;;;;;;0.00;0.00;;;0.40;99.90;;;;;;4982820;28;20698;-63
2022/03/09 07:02:40;;;;;;;0.00;0.00;;;-0.50;99.90;;;;;;4991793;28;20120;-64
2022/03/09 07:05:07;;;;;;;0.00;0.00;;;0.50;99.90;;;;;;4983244;28;20129;-64
2022/03/09 07:07:33;;;;;;;0.00;0.00;;;0.50;99.90;;;;;;4982119;28;20058;-63
2022/03/09 07:09:59;;;;;;;0.00;0.00;;;0.50;99.90;;;;;;4982566;28;20058;-64
2022/03/09 07:12:25;;;;;;;0.00;0.00;;;0.60;99.90;;;;;;4982867;28;20075;-63
2022/03/09 07:14:51;;;;;;;0.00;0.00;;;0.40;99.90;;;;;;4982094;28;20046;-63
2022/03/09 07:17:17;;;;;;;0.00;0.00;;;0.90;99.90;;;;;;4983272;28;20498;-64
2022/03/09 07:19:43;;;;;;;0.20;0.20;;;0.90;99.90;;;;;;4981681;28;20497;-63
2022/03/09 07:22:09;;;;;;;0.00;0.00;;;1.00;99.90;;;;;;4982304;28;20097;-64
2022/03/09 07:24:35;;;;;;;0.00;0.00;;;1.10;99.90;;;;;;4982774;28;20502;-64
2022/03/09 07:27:00;;;;;;;0.00;0.00;;;1.20;99.90;;;;;;4983187;28;20070;-63
2022/03/09 07:29:26;;;;;;;0.00;0.00;;;1.30;99.90;;;;;;4982634;28;20596;-63
2022/03/09 07:31:53;;;;;;;0.00;0.00;;;1.30;99.90;;;;;;4980357;28;20057;-63
2022/03/09 07:34:22;;;;;;;0.00;0.00;;;1.40;99.90;;;;;;4980984;28;20047;-63
2022/03/09 07:36:49;;;;;;;0.90;0.45;;;1.60;99.90;;;;;;4982617;28;20394;-64
2022/03/09 07:39:15;;;;;;;0.00;0.00;;;1.70;99.90;;;;;;4965166;28;20413;-64
2022/03/09 07:41:41;;;;;;;0.00;0.00;;;1.70;99.90;;;;;;4982021;28;20081;-63
2022/03/09 07:44:07;;;;;;;0.00;0.00;;;1.80;99.90;;;;;;4982749;28;20380;-64
2022/03/09 07:46:34;;;;;;;0.00;0.00;;;1.90;99.90;;;;;;4982468;28;20200;-64
2022/03/09 07:49:00;;;;;;;0.00;0.00;;;2.00;99.90;;;;;;4980819;28;20050;-64
2022/03/09 07:51:25;;;;;;;2.10;1.05;;;3.10;99.90;;;;;;4982643;28;20043;-63
2022/03/09 07:53:51;;;;;;;0.00;0.00;;;2.10;99.90;;;;;;4982161;28;20158;-64
2022/03/09 07:56:16;;;;;;;0.00;0.00;;;2.20;99.90;;;;;;4980916;28;20057;-64
2022/03/09 07:58:42;;;;;;;0.20;0.20;;;2.20;99.90;;;;;;4983749;28;20125;-63
2022/03/09 08:01:08;;;;;;;0.00;0.00;;;2.50;99.90;;;;;;4985963;28;20041;-64
2022/03/09 08:03:34;;;;;;;0.10;0.10;;;2.30;99.90;;;;;;4994840;28;20054;-63
2022/03/09 08:06:00;;;;;;;0.00;0.00;;;2.50;99.90;;;;;;4986429;28;20093;-64
2022/03/09 08:08:26;;;;;;;0.30;0.30;;;2.60;99.90;;;;;;4984406;28;20475;-64
2022/03/09 08:10:52;;;;;;;0.00;0.00;;;2.70;99.90;;;;;;4985323;28;20057;-64
2022/03/09 08:13:18;;;;;;;0.00;0.00;;;2.80;99.90;;;;;;4984035;28;20039;-63
2022/03/09 08:15:43;;;;;;;0.05;0.05;;;4.30;99.90;;;;;;4984146;28;20058;-65
2022/03/09 08:18:09;;;;;;;0.00;0.00;;;3.10;99.90;;;;;;4985812;28;20548;-63
2022/03/09 08:20:35;;;;;;;0.43;0.43;;;3.20;99.90;;;;;;4982889;28;20517;-63
2022/03/09 08:23:01;;;;;;;0.00;0.00;;;3.30;99.90;;;;;;4984761;28;20579;-63
2022/03/09 08:25:27;;;;;;;0.00;0.00;;;3.40;99.90;;;;;;4985695;28;20133;-63
2022/03/09 08:27:52;;;;;;;0.10;0.10;;;4.50;99.90;;;;;;4983469;28;20561;-63
2022/03/09 08:30:18;;;;;;;0.45;0.40;;;3.70;99.90;;;;;;4983722;28;20042;-62
2022/03/09 08:32:44;;;;;;;0.00;0.00;;;3.90;99.90;;;;;;4985436;28;20044;-62
2022/03/09 08:35:09;;;;;;;0.00;0.00;;;4.00;99.90;;;;;;4984566;28;20049;-63
2022/03/09 08:37:35;;;;;;;0.00;0.00;;;4.20;99.90;;;;;;4984873;28;20505;-63
2022/03/09 08:40:02;;;;;;;0.05;0.05;;;4.30;99.90;;;;;;4968055;28;20112;-62
2022/03/09 08:42:28;;;;;;;0.00;0.00;;;4.50;99.90;;;;;;4952139;28;20054;-62
2022/03/09 08:44:53;;;;;;;0.47;0.38;;;4.60;99.90;;;;;;4984916;28;20058;-62
2022/03/09 08:47:19;;;;;;;0.05;0.03;;;4.70;99.90;;;;;;4983226;28;20112;-62
2022/03/09 08:49:44;;;;;;;0.20;0.20;;;4.90;99.90;;;;;;4984462;28;20121;-62
2022/03/09 08:52:11;;;;;;;0.00;0.00;;;5.00;99.90;;;;;;4985241;28;20554;-62
2022/03/09 08:54:40;;;;;;;0.00;0.00;;;5.20;99.90;;;;;;4984360;28;20512;-64
2022/03/09 08:57:05;;;;;;;0.10;0.10;;;5.90;99.90;;;;;;4983966;28;20497;-62
2022/03/09 08:59:31;;;;;;;0.00;0.00;;;5.50;99.90;;;;;;4985275;28;20038;-63
2022/03/09 09:01:57;;;;;;;2.78;2.50;;;5.70;99.90;;;;;;4988092;28;20038;-64
2022/03/09 09:04:23;;;;;;;0.82;0.82;;;5.80;99.90;;;;;;4998902;28;20072;-64
2022/03/09 09:06:49;;;;;;;0.30;0.20;;;6.00;99.90;;;;;;4984138;28;20113;-62
2022/03/09 09:09:16;;;;;;;0.52;0.45;;;6.00;99.90;;;;;;5003207;28;20165;-61
2022/03/09 09:11:42;;;;;;;2.72;2.55;;;6.10;99.90;;;;;;5003223;28;20074;-62
2022/03/09 09:14:08;;;;;;;0.00;0.00;;;6.30;99.90;;;;;;5005927;28;20112;-62
2022/03/09 09:16:34;;;;;;;0.40;0.30;;;6.50;99.90;;;;;;5023984;28;20141;-62
2022/03/09 09:19:00;;;;;;;0.00;0.00;;;6.40;99.90;;;;;;5023381;28;20462;-62
2022/03/09 09:21:26;;;;;;;0.20;0.20;;;6.50;99.90;;;;;;5023238;28;20087;-62
2022/03/09 09:23:51;;;;;;;0.00;0.00;;;7.00;99.90;;;;;;5023181;28;20452;-61
2022/03/09 09:26:20;;;;;;;0.00;0.00;;;7.50;99.90;;;;;;5023636;28;20045;-62
2022/03/09 09:28:46;;;;;;;0.20;0.20;;;8.00;99.90;;;;;;5022799;28;20106;-63
2022/03/09 09:31:12;;;;;;;0.15;0.08;;;8.50;99.90;;;;;;5023608;28;20475;-63
2022/03/09 09:33:37;;;;;;;0.63;0.63;;;8.20;99.90;;;;;;5022604;28;20042;-63
2022/03/09 09:36:04;;;;;;;0.75;0.63;;;8.40;99.90;;;;;;5023684;28;20404;-62
2022/03/09 09:38:30;;;;;;;0.10;0.10;;;8.90;99.90;;;;;;5023984;28;20072;-63
2022/03/09 09:40:56;;;;;;;0.10;0.10;;;8.80;99.90;;;;;;5022844;28;20049;-63
2022/03/09 09:43:24;;;;;;;0.32;0.32;;;8.60;99.90;;;;;;5023114;28;20132;-64
2022/03/09 09:45:50;;;;;;;0.40;0.40;;;8.90;99.90;;;;;;5022376;28;20176;-63
2022/03/09 09:48:19;;;;;;;0.52;0.15;;;9.20;99.90;;;;;;5023368;28;20137;-63
2022/03/09 09:50:45;;;;;;;0.20;0.20;;;9.70;99.90;;;;;;5023126;28;20140;-64
2022/03/09 09:53:13;;;;;;;0.75;0.75;;;9.40;98.90;;;;;;5022934;28;20048;-63
2022/03/09 09:55:40;;;;;;;0.20;0.20;;;9.90;99.80;;;;;;5004896;28;20126;-64
2022/03/09 09:58:07;;;;;;;0.10;0.10;;;9.60;99.50;;;;;;5022144;28;20041;-63
2022/03/09 10:00:34;;;;;;;1.45;1.35;;;9.90;97.80;;;;;;5022990;28;20404;-64
2022/03/09 10:03:00;;;;;;;0.57;0.57;;;9.80;95.50;;;;;;5016096;28;20049;-63
2022/03/09 10:05:26;;;;;;;0.68;0.47;;;10.10;94.10;;;;;;5002470;28;20042;-63
2022/03/09 10:08:04;;;;;;;1.35;0.63;;;9.80;95.00;;;;;;5002506;28;20329;-62
2022/03/09 10:10:35;;;;;;;2.58;2.38;;;9.50;93.90;;;;;;5003636;28;20065;-63
2022/03/09 10:13:12;;;;;;;1.77;1.67;;;9.50;95.10;;;;;;5003396;28;20049;-64
2022/03/09 10:15:39;;;;;;;0.00;0.00;;;9.40;94.30;;;;;;5002614;28;20052;-61
2022/03/09 10:18:25;;;;;;;0.35;0.32;;;9.60;94.70;;;;;;4985760;28;20038;-63
2022/03/09 10:20:50;;;;;;;0.10;0.10;;;10.30;94.20;;;;;;5001449;28;20057;-63
2022/03/09 10:23:19;;;;;;;0.10;0.10;;;10.20;93.30;;;;;;5002892;28;20049;-63
2022/03/09 10:25:48;;;;;;;0.47;0.10;;;10.10;93.10;;;;;;5002614;28;20108;-63
2022/03/09 10:28:13;;;;;;;0.35;0.32;;;10.30;92.40;;;;;;5002877;28;20037;-63
2022/03/09 10:30:41;;;;;;;0.65;0.65;;;9.90;93.60;;;;;;4984656;28;20045;-63
2022/03/09 10:33:09;;;;;;;0.05;0.05;;;9.90;94.20;;;;;;4985490;28;20111;-63
2022/03/09 10:35:41;;;;;;;1.30;0.40;;;10.10;92.40;;;;;;5002391;28;20129;-61
2022/03/09 10:38:30;;;;;;;0.28;0.28;;;10.20;93.90;;;;;;4985113;28;20042;-63
2022/03/09 10:41:00;;;;;;;0.20;0.20;;;10.00;93.50;;;;;;5002174;28;20050;-63
2022/03/09 10:43:28;;;;;;;0.47;0.28;;;10.20;91.80;;;;;;5002322;28;20041;-63
2022/03/09 10:46:02;;;;;;;0.10;0.10;;;10.00;91.30;;;;;;5002470;28;20045;-63
2022/03/09 10:48:52;;;;;;;0.88;0.88;;;9.80;92.10;;;;;;5002406;28;20057;-63
2022/03/09 10:51:41;;;;;;;0.98;0.70;;;10.30;93.40;;;;;;5002685;28;20053;-63
2022/03/09 10:54:26;;;;;;;0.00;0.00;;;10.10;92.70;;;;;;4985426;28;20152;-63
2022/03/09 10:57:06;;;;;;;0.15;0.15;;;9.90;92.10;;;;;;5002748;28;20053;-63
2022/03/09 10:59:53;;;;;;;0.55;0.55;;;10.40;92.00;;;;;;4985291;28;20056;-63
2022/03/09 11:02:21;;;;;;;0.35;0.35;;;10.20;91.60;;;;;;5008680;28;20129;-63
2022/03/09 11:05:12;;;;;;;0.85;0.85;;;10.20;91.20;;;;;;5005437;28;20456;-62
2022/03/09 11:07:39;;;;;;;0.75;0.70;;;10.50;92.20;;;;;;4977134;28;20057;-64
2022/03/09 11:10:08;;;;;;;0.17;0.10;;;11.10;91.00;;;;;;5002265;28;20132;-62
2022/03/09 11:12:34;;;;;;;0.80;0.63;;;11.20;90.10;;;;;;5002778;28;20041;-62
2022/03/09 11:15:01;;;;;;;0.20;0.20;;;11.20;89.80;;;;;;4985160;28;20046;-63
2022/03/09 11:17:27;;;;;;;0.43;0.43;;;10.80;89.30;;;;;;5002206;28;20485;-64
2022/03/09 11:19:53;;;;;;;0.00;0.00;;;11.10;90.50;;;;;;5001185;28;20045;-63
2022/03/09 11:22:19;;;;;;;0.25;0.10;;;11.20;89.90;;;;;;5002581;28;20050;-63
2022/03/09 11:24:45;;;;;;;0.47;0.20;;;11.70;90.00;;;;;;5001648;28;20049;-63
2022/03/09 11:27:11;;;;;;;2.00;1.80;;;11.40;87.90;;;;;;4984988;28;20058;-63
2022/03/09 11:29:40;;;;;;;0.80;0.70;;;11.10;88.70;;;;;;5002341;28;20605;-63
2022/03/09 11:32:14;;;;;;;0.10;0.10;;;11.00;85.70;;;;;;5001684;28;20038;-64
2022/03/09 11:34:47;;;;;;;0.82;0.75;;;11.00;87.00;;;;;;5005218;28;20042;-63
2022/03/09 11:37:18;;;;;;;0.20;0.20;;;11.30;87.40;;;;;;5004937;28;20137;-64
2022/03/09 11:40:08;;;;;;;0.30;0.20;;;11.30;86.20;;;;;;5005433;28;20042;-62
2022/03/09 11:42:35;;;;;;;0.38;0.30;;;11.60;87.00;;;;;;4995496;28;20145;-62
2022/03/09 11:45:16;;;;;;;0.52;0.30;;;12.00;89.40;;;;;;5005875;28;20657;-63
2022/03/09 11:48:09;;;;;;;0.10;0.10;;;12.40;89.40;;;;;;5005250;28;20520;-62
2022/03/09 11:50:46;;;;;;;0.10;0.10;;;12.00;86.70;;;;;;5004930;28;20196;-62
2022/03/09 11:53:13;;;;;;;1.13;1.02;;;12.10;86.20;;;;;;5005683;28;20620;-62
2022/03/09 11:55:39;;;;;;;0.10;0.10;;;12.20;87.10;;;;;;4987404;28;20042;-62
2022/03/09 11:58:13;;;;;;;0.10;0.10;;;11.90;85.10;;;;;;5005545;28;20634;-61
2022/03/09 12:00:58;;;;;;;0.22;0.20;;;11.80;84.70;;;;;;4987661;28;20046;-61
2022/03/09 12:03:41;;;;;;;0.73;0.40;;;12.10;83.20;;;;;;5000027;28;20049;-64
2022/03/09 12:06:42;;;;;;;0.30;0.22;;;11.90;81.80;;;;;;5005212;28;20431;-62
2022/03/09 12:09:09;;;;;;;0.17;0.17;;;11.80;81.90;;;;;;5005517;28;20133;-62
2022/03/09 12:12:13;;;;;;;0.45;0.45;;;11.70;81.50;;;;;;5005038;28;20064;-61
2022/03/09 12:15:03;;;;;;;5.10;1.00;;;11.70;80.20;;;;;;5003621;28;20058;-62
2022/03/09 12:17:50;;;;;;;2.47;0.82;;;11.70;80.20;;;;;;4995302;28;20112;-62
2022/03/09 12:20:23;;;;;;;2.00;1.00;;;12.00;80.60;;;;;;5004626;28;20070;-62
2022/03/09 12:23:00;;;;;;;1.35;0.47;;;11.60;78.80;;;;;;5004574;28;20064;-61
2022/03/09 12:25:44;;;;;;;0.40;0.32;;;11.40;79.40;;;;;;5004723;28;20061;-62
2022/03/09 12:28:25;;;;;;;0.85;0.55;;;11.90;81.10;;;;;;4987891;28;20037;-62
2022/03/09 12:30:53;;;;;;;0.20;0.20;;;11.90;78.30;;;;;;5004383;28;20042;-62
2022/03/09 12:33:31;;;;;;;1.80;0.70;;;12.00;78.60;;;;;;5004530;28;20412;-62
2022/03/09 12:36:10;;;;;;;0.35;0.10;;;12.10;78.50;;;;;;5003766;28;20453;-62
2022/03/09 12:38:54;;;;;;;1.45;0.63;;;12.50;77.30;;;;;;5004703;28;20085;-64
2022/03/09 12:41:39;;;;;;;0.10;0.10;;;12.20;76.80;;;;;;5004426;28;20045;-63
2022/03/09 12:44:07;;;;;;;0.30;0.30;;;12.50;78.70;;;;;;4987456;28;20060;-63
2022/03/09 12:46:35;;;;;;;0.10;0.10;;;12.70;76.70;;;;;;5004868;28;20054;-62
2022/03/09 12:49:04;;;;;;;0.10;0.10;;;12.50;74.20;;;;;;5004378;28;20042;-64
2022/03/09 12:51:31;;;;;;;0.10;0.10;;;12.40;76.00;;;;;;5005295;28;20620;-62
2022/03/09 12:53:56;;;;;;;0.25;0.25;;;12.30;72.80;;;;;;5004411;28;20058;-62
2022/03/09 12:56:28;;;;;;;0.28;0.15;;;11.90;72.70;;;;;;5003773;28;20042;-63
2022/03/09 12:59:06;;;;;;;1.98;0.82;;;12.10;74.70;;;;;;4986512;28;20042;-63
2022/03/09 13:01:32;;;;;;;0.20;0.10;;;12.20;74.30;;;;;;5006890;28;20052;-63